sensor_id;sensor_type;location;lat;lon;timestamp;pressure;altitude;pressure_sealevel;temperature;humidity
64139;BME280;50435;43.700;-79.318;2023-04-07T00:02:10;100972.92;;;10.09;35.43
64139;BME280;50435;43.700;-79.318;2023-04-07T00:04:37;100986.67;;;10.33;35.90
64139;BME280;50435;43.700;-79.318;2023-04-07T00:07:04;101000.58;;;10.10;36.20
64139;BME280;50435;43.700;-79.318;2023-04-07T00:09:32;101007.75;;;10.13;36.11
64139;BME280;50435;43.700;-79.318;2023-04-07T00:11:59;101005.90;;;9.62;35.95
64139;BME280;50435;43.700;-79.318;2023-04-07T00:14:27;101004.47;;;10.24;35.76
64139;BME280;50435;43.700;-79.318;2023-04-07T00:16:55;101009.06;;;9.50;35.81
64139;BME280;50435;43.700;-79.318;2023-04-07T00:19:22;101002.55;;;9.94;35.77
64139;BME280;50435;43.700;-79.318;2023-04-07T00:21:50;101001.76;;;8.80;35.92
64139;BME280;50435;43.700;-79.318;2023-04-07T00:24:17;101001.75;;;9.80;35.77
64139;BME280;50435;43.700;-79.318;2023-04-07T00:26:44;100994.62;;;9.15;35.69
64139;BME280;50435;43.700;-79.318;2023-04-07T00:29:11;101005.29;;;10.06;35.50
64139;BME280;50435;43.700;-79.318;2023-04-07T00:31:38;101013.81;;;9.93;35.85
64139;BME280;50435;43.700;-79.318;2023-04-07T00:34:06;101027.65;;;9.96;36.00
64139;BME280;50435;43.700;-79.318;2023-04-07T00:36:33;101028.43;;;10.12;35.74
64139;BME280;50435;43.700;-79.318;2023-04-07T00:39:01;101039.49;;;9.74;36.12
64139;BME280;50435;43.700;-79.318;2023-04-07T00:41:28;101011.48;;;9.89;36.06
64139;BME280;50435;43.700;-79.318;2023-04-07T00:43:55;101007.21;;;9.06;36.30
64139;BME280;50435;43.700;-79.318;2023-04-07T00:46:22;101032.77;;;10.02;36.18
64139;BME280;50435;43.700;-79.318;2023-04-07T00:48:50;101047.49;;;9.02;36.09
64139;BME280;50435;43.700;-79.318;2023-04-07T00:51:19;101038.40;;;9.71;36.30
64139;BME280;50435;43.700;-79.318;2023-04-07T00:53:47;101041.64;;;8.40;36.42
64139;BME280;50435;43.700;-79.318;2023-04-07T00:56:15;101044.67;;;9.80;36.28
64139;BME280;50435;43.700;-79.318;2023-04-07T00:58:42;101046.96;;;9.30;36.57
64139;BME280;50435;43.700;-79.318;2023-04-07T01:01:14;101041.80;;;9.63;36.21
64139;BME280;50435;43.700;-79.318;2023-04-07T01:03:45;101037.99;;;8.83;36.27
64139;BME280;50435;43.700;-79.318;2023-04-07T01:06:17;101048.93;;;9.66;36.23
64139;BME280;50435;43.700;-79.318;2023-04-07T01:08:53;101057.11;;;8.17;36.76
64139;BME280;50435;43.700;-79.318;2023-04-07T01:11:24;101060.03;;;9.62;36.81
64139;BME280;50435;43.700;-79.318;2023-04-07T01:13:54;101061.57;;;9.05;36.68
64139;BME280;50435;43.700;-79.318;2023-04-07T01:16:28;101064.55;;;9.66;36.70
64139;BME280;50435;43.700;-79.318;2023-04-07T01:18:59;101060.80;;;8.95;36.95
64139;BME280;50435;43.700;-79.318;2023-04-07T01:21:28;101056.87;;;9.50;36.73
64139;BME280;50435;43.700;-79.318;2023-04-07T01:24:15;101069.84;;;9.11;37.08
64139;BME280;50435;43.700;-79.318;2023-04-07T01:26:49;101072.48;;;8.39;37.02
64139;BME280;50435;43.700;-79.318;2023-04-07T01:29:26;101079.63;;;9.16;37.17
64139;BME280;50435;43.700;-79.318;2023-04-07T01:31:54;101069.42;;;8.85;37.31
64139;BME280;50435;43.700;-79.318;2023-04-07T01:34:25;101082.86;;;9.28;37.45
64139;BME280;50435;43.700;-79.318;2023-04-07T01:36:54;101085.16;;;8.49;37.42
64139;BME280;50435;43.700;-79.318;2023-04-07T01:39:22;101097.44;;;9.24;36.95
64139;BME280;50435;43.700;-79.318;2023-04-07T01:41:52;101095.45;;;8.78;37.34
64139;BME280;50435;43.700;-79.318;2023-04-07T01:44:20;101098.67;;;9.21;37.03
64139;BME280;50435;43.700;-79.318;2023-04-07T01:46:49;101107.79;;;8.06;37.41
64139;BME280;50435;43.700;-79.318;2023-04-07T01:49:17;101107.48;;;9.20;37.56
64139;BME280;50435;43.700;-79.318;2023-04-07T01:51:45;101118.20;;;7.99;37.65
64139;BME280;50435;43.700;-79.318;2023-04-07T01:54:13;101120.40;;;8.66;37.43
64139;BME280;50435;43.700;-79.318;2023-04-07T01:56:40;101122.42;;;8.70;37.60
64139;BME280;50435;43.700;-79.318;2023-04-07T01:59:07;101123.50;;;8.93;37.38
64139;BME280;50435;43.700;-79.318;2023-04-07T02:01:35;101122.55;;;9.14;37.41
64139;BME280;50435;43.700;-79.318;2023-04-07T02:04:09;101124.08;;;9.10;37.47
64139;BME280;50435;43.700;-79.318;2023-04-07T02:06:42;101127.58;;;9.04;37.84
64139;BME280;50435;43.700;-79.318;2023-04-07T02:09:12;101141.42;;;9.01;37.62
64139;BME280;50435;43.700;-79.318;2023-04-07T02:11:41;101139.21;;;8.03;37.88
64139;BME280;50435;43.700;-79.318;2023-04-07T02:14:10;101146.02;;;8.57;38.09
64139;BME280;50435;43.700;-79.318;2023-04-07T02:16:40;101154.85;;;8.83;38.04
64139;BME280;50435;43.700;-79.318;2023-04-07T02:19:08;101151.20;;;8.75;38.03
64139;BME280;50435;43.700;-79.318;2023-04-07T02:21:36;101145.68;;;8.69;38.23
64139;BME280;50435;43.700;-79.318;2023-04-07T02:24:07;101154.21;;;8.18;38.43
64139;BME280;50435;43.700;-79.318;2023-04-07T02:26:35;101150.39;;;8.61;38.43
64139;BME280;50435;43.700;-79.318;2023-04-07T02:29:02;101152.11;;;8.07;38.51
64139;BME280;50435;43.700;-79.318;2023-04-07T02:31:30;101151.64;;;8.47;38.28
64139;BME280;50435;43.700;-79.318;2023-04-07T02:33:58;101149.93;;;7.99;38.00
64139;BME280;50435;43.700;-79.318;2023-04-07T02:36:25;101153.91;;;8.44;38.45
64139;BME280;50435;43.700;-79.318;2023-04-07T02:38:52;101155.91;;;8.12;38.57
64139;BME280;50435;43.700;-79.318;2023-04-07T02:41:19;101155.77;;;8.37;38.58
64139;BME280;50435;43.700;-79.318;2023-04-07T02:43:47;101151.50;;;6.73;38.48
64139;BME280;50435;43.700;-79.318;2023-04-07T02:46:14;101157.81;;;8.39;38.54
64139;BME280;50435;43.700;-79.318;2023-04-07T02:48:41;101160.16;;;7.73;38.61
64139;BME280;50435;43.700;-79.318;2023-04-07T02:51:09;101156.14;;;8.21;38.55
64139;BME280;50435;43.700;-79.318;2023-04-07T02:53:36;101159.86;;;8.74;38.60
64139;BME280;50435;43.700;-79.318;2023-04-07T02:56:04;101158.59;;;8.21;38.47
64139;BME280;50435;43.700;-79.318;2023-04-07T02:58:31;101169.38;;;8.15;38.86
64139;BME280;50435;43.700;-79.318;2023-04-07T03:00:58;101163.79;;;8.12;39.14
64139;BME280;50435;43.700;-79.318;2023-04-07T03:03:26;101157.08;;;8.30;38.84
64139;BME280;50435;43.700;-79.318;2023-04-07T03:05:53;101157.76;;;7.54;38.99
64139;BME280;50435;43.700;-79.318;2023-04-07T03:08:20;101154.84;;;8.23;39.14
64139;BME280;50435;43.700;-79.318;2023-04-07T03:10:47;101156.48;;;6.80;39.48
64139;BME280;50435;43.700;-79.318;2023-04-07T03:13:14;101148.72;;;8.19;39.07
64139;BME280;50435;43.700;-79.318;2023-04-07T03:15:41;101144.74;;;7.76;39.21
64139;BME280;50435;43.700;-79.318;2023-04-07T03:18:09;101145.62;;;7.98;38.92
64139;BME280;50435;43.700;-79.318;2023-04-07T03:20:36;101148.97;;;8.47;39.38
64139;BME280;50435;43.700;-79.318;2023-04-07T03:23:03;101145.34;;;8.06;39.07
64139;BME280;50435;43.700;-79.318;2023-04-07T03:25:31;101141.92;;;7.95;39.37
64139;BME280;50435;43.700;-79.318;2023-04-07T03:27:58;101150.20;;;7.69;39.44
64139;BME280;50435;43.700;-79.318;2023-04-07T03:30:25;101148.50;;;7.83;39.74
64139;BME280;50435;43.700;-79.318;2023-04-07T03:32:52;101148.16;;;7.14;39.40
64139;BME280;50435;43.700;-79.318;2023-04-07T03:35:19;101142.72;;;7.87;39.37
64139;BME280;50435;43.700;-79.318;2023-04-07T03:37:46;101142.44;;;6.62;39.49
64139;BME280;50435;43.700;-79.318;2023-04-07T03:40:14;101152.34;;;7.73;39.54
64139;BME280;50435;43.700;-79.318;2023-04-07T03:42:41;101156.19;;;6.88;40.37
64139;BME280;50435;43.700;-79.318;2023-04-07T03:45:09;101158.50;;;7.73;39.98
64139;BME280;50435;43.700;-79.318;2023-04-07T03:47:37;101165.81;;;7.99;39.62
64139;BME280;50435;43.700;-79.318;2023-04-07T03:50:05;101167.77;;;7.66;39.73
64139;BME280;50435;43.700;-79.318;2023-04-07T03:52:33;101170.49;;;7.90;40.14
64139;BME280;50435;43.700;-79.318;2023-04-07T03:55:00;101174.81;;;7.88;39.75
64139;BME280;50435;43.700;-79.318;2023-04-07T03:57:27;101177.66;;;7.80;40.00
64139;BME280;50435;43.700;-79.318;2023-04-07T03:59:55;101179.03;;;6.84;40.42
64139;BME280;50435;43.700;-79.318;2023-04-07T04:02:23;101177.03;;;7.70;39.86
64139;BME280;50435;43.700;-79.318;2023-04-07T04:04:50;101184.29;;;6.54;40.32
64139;BME280;50435;43.700;-79.318;2023-04-07T04:07:17;101175.77;;;7.86;40.30
64139;BME280;50435;43.700;-79.318;2023-04-07T04:09:44;101182.29;;;6.49;40.74
64139;BME280;50435;43.700;-79.318;2023-04-07T04:12:11;101179.09;;;7.30;40.54
64139;BME280;50435;43.700;-79.318;2023-04-07T04:14:38;101182.44;;;7.38;40.72
64139;BME280;50435;43.700;-79.318;2023-04-07T04:17:06;101186.63;;;7.21;40.57
64139;BME280;50435;43.700;-79.318;2023-04-07T04:19:33;101187.55;;;7.74;40.88
64139;BME280;50435;43.700;-79.318;2023-04-07T04:22:00;101189.43;;;7.13;40.90
64139;BME280;50435;43.700;-79.318;2023-04-07T04:24:27;101192.32;;;7.61;40.70
64139;BME280;50435;43.700;-79.318;2023-04-07T04:26:55;101189.42;;;6.77;41.25
64139;BME280;50435;43.700;-79.318;2023-04-07T04:29:22;101185.92;;;7.38;41.43
64139;BME280;50435;43.700;-79.318;2023-04-07T04:31:49;101193.33;;;6.17;41.58
64139;BME280;50435;43.700;-79.318;2023-04-07T04:34:16;101199.46;;;5.91;40.54
64139;BME280;50435;43.700;-79.318;2023-04-07T04:36:43;101197.11;;;7.36;39.47
64139;BME280;50435;43.700;-79.318;2023-04-07T04:39:11;101198.47;;;7.62;40.32
64139;BME280;50435;43.700;-79.318;2023-04-07T04:41:38;101200.24;;;7.77;40.66
64139;BME280;50435;43.700;-79.318;2023-04-07T04:44:05;101194.97;;;7.09;41.18
64139;BME280;50435;43.700;-79.318;2023-04-07T04:46:32;101196.26;;;7.54;41.18
64139;BME280;50435;43.700;-79.318;2023-04-07T04:48:59;101192.51;;;6.96;41.38
64139;BME280;50435;43.700;-79.318;2023-04-07T04:51:26;101202.94;;;7.31;41.73
64139;BME280;50435;43.700;-79.318;2023-04-07T04:53:54;101207.87;;;6.74;41.76
64139;BME280;50435;43.700;-79.318;2023-04-07T04:56:21;101208.31;;;7.18;41.79
64139;BME280;50435;43.700;-79.318;2023-04-07T04:58:48;101210.63;;;5.76;41.85
64139;BME280;50435;43.700;-79.318;2023-04-07T05:01:16;101209.82;;;7.43;41.65
64139;BME280;50435;43.700;-79.318;2023-04-07T05:03:43;101212.87;;;6.08;41.92
64139;BME280;50435;43.700;-79.318;2023-04-07T05:06:11;101227.82;;;7.24;41.88
64139;BME280;50435;43.700;-79.318;2023-04-07T05:08:38;101235.77;;;6.99;42.52
64139;BME280;50435;43.700;-79.318;2023-04-07T05:11:05;101230.71;;;6.90;42.12
64139;BME280;50435;43.700;-79.318;2023-04-07T05:13:32;101228.73;;;6.78;42.29
64139;BME280;50435;43.700;-79.318;2023-04-07T05:16:00;101236.09;;;6.31;42.22
64139;BME280;50435;43.700;-79.318;2023-04-07T05:18:27;101239.53;;;6.74;42.34
64139;BME280;50435;43.700;-79.318;2023-04-07T05:20:54;101245.16;;;6.29;42.19
64139;BME280;50435;43.700;-79.318;2023-04-07T05:23:21;101252.12;;;6.88;42.09
64139;BME280;50435;43.700;-79.318;2023-04-07T05:25:49;101242.89;;;5.55;41.76
64139;BME280;50435;43.700;-79.318;2023-04-07T05:28:16;101252.21;;;6.99;41.77
64139;BME280;50435;43.700;-79.318;2023-04-07T05:30:44;101255.31;;;6.01;41.72
64139;BME280;50435;43.700;-79.318;2023-04-07T05:33:11;101258.34;;;6.85;41.94
64139;BME280;50435;43.700;-79.318;2023-04-07T05:35:39;101264.32;;;6.82;41.86
64139;BME280;50435;43.700;-79.318;2023-04-07T05:38:06;101267.45;;;6.47;42.01
64139;BME280;50435;43.700;-79.318;2023-04-07T05:40:33;101265.78;;;7.00;42.01
64139;BME280;50435;43.700;-79.318;2023-04-07T05:43:00;101268.43;;;6.29;42.40
64139;BME280;50435;43.700;-79.318;2023-04-07T05:45:27;101278.52;;;6.97;42.48
64139;BME280;50435;43.700;-79.318;2023-04-07T05:47:55;101274.26;;;6.17;42.59
64139;BME280;50435;43.700;-79.318;2023-04-07T05:50:22;101283.92;;;6.32;42.82
64139;BME280;50435;43.700;-79.318;2023-04-07T05:52:49;101288.97;;;5.03;42.64
64139;BME280;50435;43.700;-79.318;2023-04-07T05:55:16;101284.00;;;6.63;42.75
64139;BME280;50435;43.700;-79.318;2023-04-07T05:57:44;101283.32;;;5.91;42.78
64139;BME280;50435;43.700;-79.318;2023-04-07T06:00:13;101281.31;;;6.32;42.95
64139;BME280;50435;43.700;-79.318;2023-04-07T06:02:40;101287.15;;;6.47;43.13
64139;BME280;50435;43.700;-79.318;2023-04-07T06:05:08;101286.01;;;6.25;43.34
64139;BME280;50435;43.700;-79.318;2023-04-07T06:07:36;101291.20;;;6.27;43.32
64139;BME280;50435;43.700;-79.318;2023-04-07T06:10:03;101294.62;;;6.00;43.45
64139;BME280;50435;43.700;-79.318;2023-04-07T06:12:31;101302.26;;;6.14;43.83
64139;BME280;50435;43.700;-79.318;2023-04-07T06:14:58;101306.23;;;5.92;44.19
64139;BME280;50435;43.700;-79.318;2023-04-07T06:17:26;101305.56;;;6.27;44.54
64139;BME280;50435;43.700;-79.318;2023-04-07T06:19:53;101308.93;;;5.29;45.18
64139;BME280;50435;43.700;-79.318;2023-04-07T06:22:20;101311.53;;;5.90;45.61
64139;BME280;50435;43.700;-79.318;2023-04-07T06:24:47;101315.30;;;4.30;45.70
64139;BME280;50435;43.700;-79.318;2023-04-07T06:27:15;101304.20;;;5.48;46.16
64139;BME280;50435;43.700;-79.318;2023-04-07T06:29:42;101296.38;;;4.74;46.04
64139;BME280;50435;43.700;-79.318;2023-04-07T06:32:10;101307.03;;;5.19;46.11
64139;BME280;50435;43.700;-79.318;2023-04-07T06:34:37;101303.88;;;5.65;46.65
64139;BME280;50435;43.700;-79.318;2023-04-07T06:37:04;101295.40;;;5.05;46.54
64139;BME280;50435;43.700;-79.318;2023-04-07T06:39:31;101298.51;;;5.43;46.52
64139;BME280;50435;43.700;-79.318;2023-04-07T06:41:58;101299.04;;;5.31;46.58
64139;BME280;50435;43.700;-79.318;2023-04-07T06:44:26;101299.18;;;5.14;46.92
64139;BME280;50435;43.700;-79.318;2023-04-07T06:46:53;101298.44;;;3.69;46.90
64139;BME280;50435;43.700;-79.318;2023-04-07T06:49:20;101300.22;;;5.10;47.06
64139;BME280;50435;43.700;-79.318;2023-04-07T06:51:47;101301.95;;;3.81;47.18
64139;BME280;50435;43.700;-79.318;2023-04-07T06:54:15;101301.90;;;4.94;47.11
64139;BME280;50435;43.700;-79.318;2023-04-07T06:56:42;101301.23;;;4.42;46.87
64139;BME280;50435;43.700;-79.318;2023-04-07T06:59:10;101303.94;;;4.95;46.72
64139;BME280;50435;43.700;-79.318;2023-04-07T07:01:37;101304.67;;;4.80;47.02
64139;BME280;50435;43.700;-79.318;2023-04-07T07:04:04;101310.88;;;4.23;47.05
64139;BME280;50435;43.700;-79.318;2023-04-07T07:06:31;101314.41;;;2.48;46.70
64139;BME280;50435;43.700;-79.318;2023-04-07T07:08:58;101316.44;;;3.92;45.30
64139;BME280;50435;43.700;-79.318;2023-04-07T07:11:26;101314.92;;;4.52;46.17
64139;BME280;50435;43.700;-79.318;2023-04-07T07:13:53;101318.03;;;4.17;46.45
64139;BME280;50435;43.700;-79.318;2023-04-07T07:16:21;101323.36;;;4.78;46.60
64139;BME280;50435;43.700;-79.318;2023-04-07T07:18:48;101324.93;;;4.83;46.98
64139;BME280;50435;43.700;-79.318;2023-04-07T07:21:17;101335.30;;;4.49;47.45
64139;BME280;50435;43.700;-79.318;2023-04-07T07:23:44;101335.40;;;4.54;47.87
64139;BME280;50435;43.700;-79.318;2023-04-07T07:26:12;101348.69;;;4.20;47.42
64139;BME280;50435;43.700;-79.318;2023-04-07T07:28:39;101345.57;;;4.48;47.61
64139;BME280;50435;43.700;-79.318;2023-04-07T07:31:09;101352.22;;;3.88;47.03
64139;BME280;50435;43.700;-79.318;2023-04-07T07:33:36;101356.92;;;4.91;47.11
64139;BME280;50435;43.700;-79.318;2023-04-07T07:36:03;101359.91;;;3.71;47.14
64139;BME280;50435;43.700;-79.318;2023-04-07T07:38:31;101367.42;;;4.96;47.10
64139;BME280;50435;43.700;-79.318;2023-04-07T07:40:58;101368.30;;;3.78;46.76
64139;BME280;50435;43.700;-79.318;2023-04-07T07:43:26;101374.89;;;4.46;47.10
64139;BME280;50435;43.700;-79.318;2023-04-07T07:45:53;101381.48;;;4.24;47.00
64139;BME280;50435;43.700;-79.318;2023-04-07T07:48:20;101386.27;;;4.94;47.15
64139;BME280;50435;43.700;-79.318;2023-04-07T07:50:48;101387.99;;;5.32;46.78
64139;BME280;50435;43.700;-79.318;2023-04-07T07:53:15;101398.26;;;4.98;46.81
64139;BME280;50435;43.700;-79.318;2023-04-07T07:55:43;101405.38;;;5.00;46.76
64139;BME280;50435;43.700;-79.318;2023-04-07T07:58:11;101404.00;;;4.39;46.94
64139;BME280;50435;43.700;-79.318;2023-04-07T08:00:38;101419.76;;;4.78;46.84
64139;BME280;50435;43.700;-79.318;2023-04-07T08:03:05;101427.95;;;4.22;46.50
64139;BME280;50435;43.700;-79.318;2023-04-07T08:05:33;101438.82;;;4.80;46.61
64139;BME280;50435;43.700;-79.318;2023-04-07T08:08:00;101446.00;;;3.66;46.69
64139;BME280;50435;43.700;-79.318;2023-04-07T08:10:27;101457.69;;;4.56;46.80
64139;BME280;50435;43.700;-79.318;2023-04-07T08:12:54;101459.35;;;3.75;46.39
64139;BME280;50435;43.700;-79.318;2023-04-07T08:15:22;101461.49;;;4.41;47.16
64139;BME280;50435;43.700;-79.318;2023-04-07T08:17:49;101474.70;;;4.41;46.60
64139;BME280;50435;43.700;-79.318;2023-04-07T08:20:16;101475.69;;;4.09;46.58
64139;BME280;50435;43.700;-79.318;2023-04-07T08:22:43;101484.52;;;4.75;46.20
64139;BME280;50435;43.700;-79.318;2023-04-07T08:25:10;101482.09;;;4.14;46.35
64139;BME280;50435;43.700;-79.318;2023-04-07T08:27:38;101488.27;;;4.50;46.43
64139;BME280;50435;43.700;-79.318;2023-04-07T08:30:07;101487.69;;;4.04;46.33
64139;BME280;50435;43.700;-79.318;2023-04-07T08:32:35;101488.57;;;4.56;46.12
64139;BME280;50435;43.700;-79.318;2023-04-07T08:35:03;101492.88;;;3.03;46.14
64139;BME280;50435;43.700;-79.318;2023-04-07T08:37:32;101497.30;;;4.55;46.03
64139;BME280;50435;43.700;-79.318;2023-04-07T08:39:59;101502.20;;;3.03;46.11
64139;BME280;50435;43.700;-79.318;2023-04-07T08:42:28;101508.23;;;4.30;46.30
64139;BME280;50435;43.700;-79.318;2023-04-07T08:44:56;101504.05;;;3.06;46.27
64139;BME280;50435;43.700;-79.318;2023-04-07T08:47:25;101501.14;;;4.11;46.58
64139;BME280;50435;43.700;-79.318;2023-04-07T08:49:56;101511.10;;;3.09;46.52
64139;BME280;50435;43.700;-79.318;2023-04-07T08:52:33;101517.20;;;4.26;46.75
64139;BME280;50435;43.700;-79.318;2023-04-07T08:55:01;101513.16;;;3.18;46.39
64139;BME280;50435;43.700;-79.318;2023-04-07T08:57:30;101522.10;;;4.41;46.60
64139;BME280;50435;43.700;-79.318;2023-04-07T09:00:00;101526.56;;;2.66;46.71
64139;BME280;50435;43.700;-79.318;2023-04-07T09:02:28;101537.47;;;3.84;46.60
64139;BME280;50435;43.700;-79.318;2023-04-07T09:04:56;101539.56;;;3.03;46.23
64139;BME280;50435;43.700;-79.318;2023-04-07T09:07:24;101543.30;;;3.86;46.46
64139;BME280;50435;43.700;-79.318;2023-04-07T09:09:51;101552.56;;;3.48;46.57
64139;BME280;50435;43.700;-79.318;2023-04-07T09:12:19;101558.99;;;3.72;46.70
64139;BME280;50435;43.700;-79.318;2023-04-07T09:14:46;101572.47;;;3.82;46.67
64139;BME280;50435;43.700;-79.318;2023-04-07T09:17:13;101570.96;;;3.50;46.72
64139;BME280;50435;43.700;-79.318;2023-04-07T09:19:41;101571.58;;;3.69;46.28
64139;BME280;50435;43.700;-79.318;2023-04-07T09:22:09;101583.68;;;2.94;46.85
64139;BME280;50435;43.700;-79.318;2023-04-07T09:24:36;101585.21;;;3.87;46.44
64139;BME280;50435;43.700;-79.318;2023-04-07T09:27:12;101588.03;;;2.89;46.32
64139;BME280;50435;43.700;-79.318;2023-04-07T09:29:42;101599.87;;;3.82;46.89
64139;BME280;50435;43.700;-79.318;2023-04-07T09:32:10;101593.37;;;3.39;46.69
64139;BME280;50435;43.700;-79.318;2023-04-07T09:34:39;101589.94;;;3.84;46.63
64139;BME280;50435;43.700;-79.318;2023-04-07T09:37:07;101590.47;;;2.86;46.56
64139;BME280;50435;43.700;-79.318;2023-04-07T09:39:48;101596.32;;;3.36;46.55
64139;BME280;50435;43.700;-79.318;2023-04-07T09:42:15;101591.86;;;1.55;44.67
64139;BME280;50435;43.700;-79.318;2023-04-07T09:44:43;101593.50;;;2.35;42.23
64139;BME280;50435;43.700;-79.318;2023-04-07T09:47:11;101606.01;;;3.75;42.84
64139;BME280;50435;43.700;-79.318;2023-04-07T09:49:49;101612.41;;;3.70;44.76
64139;BME280;50435;43.700;-79.318;2023-04-07T09:52:16;101617.84;;;2.64;45.56
64139;BME280;50435;43.700;-79.318;2023-04-07T09:54:44;101622.36;;;3.44;46.29
64139;BME280;50435;43.700;-79.318;2023-04-07T09:57:12;101627.91;;;2.50;46.98
64139;BME280;50435;43.700;-79.318;2023-04-07T09:59:41;101631.60;;;3.19;46.92
64139;BME280;50435;43.700;-79.318;2023-04-07T10:02:08;101630.01;;;3.44;47.00
64139;BME280;50435;43.700;-79.318;2023-04-07T10:04:35;101633.18;;;2.98;46.70
64139;BME280;50435;43.700;-79.318;2023-04-07T10:07:04;101639.39;;;2.93;46.84
64139;BME280;50435;43.700;-79.318;2023-04-07T10:09:32;101648.19;;;2.89;46.83
64139;BME280;50435;43.700;-79.318;2023-04-07T10:11:59;101643.05;;;3.31;46.82
64139;BME280;50435;43.700;-79.318;2023-04-07T10:14:27;101650.74;;;2.36;46.86
64139;BME280;50435;43.700;-79.318;2023-04-07T10:16:56;101646.07;;;3.02;46.95
64139;BME280;50435;43.700;-79.318;2023-04-07T10:19:25;101653.38;;;1.74;46.93
64139;BME280;50435;43.700;-79.318;2023-04-07T10:21:57;101656.59;;;3.43;46.43
64139;BME280;50435;43.700;-79.318;2023-04-07T10:24:35;101661.00;;;2.83;46.51
64139;BME280;50435;43.700;-79.318;2023-04-07T10:27:13;101663.72;;;2.84;46.83
64139;BME280;50435;43.700;-79.318;2023-04-07T10:29:45;101660.05;;;2.68;47.36
64139;BME280;50435;43.700;-79.318;2023-04-07T10:32:13;101658.80;;;1.95;46.61
64139;BME280;50435;43.700;-79.318;2023-04-07T10:34:58;101666.93;;;2.80;47.26
64139;BME280;50435;43.700;-79.318;2023-04-07T10:37:26;101672.09;;;2.35;47.19
64139;BME280;50435;43.700;-79.318;2023-04-07T10:40:59;101672.59;;;2.98;46.74
64139;BME280;50435;43.700;-79.318;2023-04-07T10:43:42;101665.16;;;2.76;47.06
64139;BME280;50435;43.700;-79.318;2023-04-07T10:46:09;101667.52;;;2.88;46.85
64139;BME280;50435;43.700;-79.318;2023-04-07T10:48:36;101669.52;;;2.80;46.91
64139;BME280;50435;43.700;-79.318;2023-04-07T10:51:13;101675.85;;;2.70;46.84
64139;BME280;50435;43.700;-79.318;2023-04-07T10:54:15;101676.51;;;2.56;46.68
64139;BME280;50435;43.700;-79.318;2023-04-07T10:57:15;101683.53;;;3.02;46.53
64139;BME280;50435;43.700;-79.318;2023-04-07T11:00:14;101689.78;;;2.65;47.01
64139;BME280;50435;43.700;-79.318;2023-04-07T11:02:41;101692.89;;;2.20;46.93
64139;BME280;50435;43.700;-79.318;2023-04-07T11:05:19;101693.39;;;2.66;46.79
64139;BME280;50435;43.700;-79.318;2023-04-07T11:07:50;101701.57;;;2.44;47.14
64139;BME280;50435;43.700;-79.318;2023-04-07T11:10:18;101700.98;;;0.95;46.93
64139;BME280;50435;43.700;-79.318;2023-04-07T11:12:59;101710.69;;;2.67;46.80
64139;BME280;50435;43.700;-79.318;2023-04-07T11:15:27;101715.08;;;2.45;46.97
64139;BME280;50435;43.700;-79.318;2023-04-07T11:18:13;101716.08;;;2.72;46.98
64139;BME280;50435;43.700;-79.318;2023-04-07T11:20:43;101721.97;;;2.72;47.00
64139;BME280;50435;43.700;-79.318;2023-04-07T11:23:11;101722.45;;;1.91;47.07
64139;BME280;50435;43.700;-79.318;2023-04-07T11:25:42;101725.68;;;2.54;46.81
64139;BME280;50435;43.700;-79.318;2023-04-07T11:28:11;101731.53;;;2.03;46.71
64139;BME280;50435;43.700;-79.318;2023-04-07T11:30:43;101735.19;;;2.77;46.24
64139;BME280;50435;43.700;-79.318;2023-04-07T11:33:14;101743.95;;;1.96;46.79
64139;BME280;50435;43.700;-79.318;2023-04-07T11:35:50;101749.76;;;2.38;46.81
64139;BME280;50435;43.700;-79.318;2023-04-07T11:38:18;101756.06;;;1.13;46.43
64139;BME280;50435;43.700;-79.318;2023-04-07T11:40:46;101753.58;;;2.77;46.54
64139;BME280;50435;43.700;-79.318;2023-04-07T11:43:18;101754.92;;;1.51;46.62
64139;BME280;50435;43.700;-79.318;2023-04-07T11:45:46;101769.96;;;2.43;46.51
64139;BME280;50435;43.700;-79.318;2023-04-07T11:48:31;101775.07;;;1.54;46.44
64139;BME280;50435;43.700;-79.318;2023-04-07T11:51:00;101787.65;;;2.32;47.07
64139;BME280;50435;43.700;-79.318;2023-04-07T11:53:29;101791.90;;;2.08;46.80
64139;BME280;50435;43.700;-79.318;2023-04-07T11:56:05;101787.44;;;2.36;46.65
64139;BME280;50435;43.700;-79.318;2023-04-07T11:58:33;101783.31;;;2.20;46.49
64139;BME280;50435;43.700;-79.318;2023-04-07T12:01:02;101789.44;;;2.98;46.16
64139;BME280;50435;43.700;-79.318;2023-04-07T12:03:31;101798.79;;;2.38;46.49
64139;BME280;50435;43.700;-79.318;2023-04-07T12:05:59;101801.64;;;2.42;46.35
64139;BME280;50435;43.700;-79.318;2023-04-07T12:08:43;101808.81;;;1.82;45.54
64139;BME280;50435;43.700;-79.318;2023-04-07T12:11:10;101812.35;;;1.92;46.29
64139;BME280;50435;43.700;-79.318;2023-04-07T12:13:37;101810.41;;;2.39;46.23
64139;BME280;50435;43.700;-79.318;2023-04-07T12:16:05;101809.23;;;2.49;46.15
64139;BME280;50435;43.700;-79.318;2023-04-07T12:18:33;101818.53;;;2.63;45.59
64139;BME280;50435;43.700;-79.318;2023-04-07T12:21:00;101807.65;;;2.38;45.90
64139;BME280;50435;43.700;-79.318;2023-04-07T12:23:28;101803.91;;;2.33;46.10
64139;BME280;50435;43.700;-79.318;2023-04-07T12:25:55;101807.56;;;2.56;46.35
64139;BME280;50435;43.700;-79.318;2023-04-07T12:28:22;101808.77;;;2.07;46.04
64139;BME280;50435;43.700;-79.318;2023-04-07T12:30:49;101804.66;;;2.92;45.82
64139;BME280;50435;43.700;-79.318;2023-04-07T12:33:17;101808.56;;;1.74;45.72
64139;BME280;50435;43.700;-79.318;2023-04-07T12:35:44;101805.42;;;2.57;46.13
64139;BME280;50435;43.700;-79.318;2023-04-07T12:38:11;101814.18;;;1.92;46.77
64139;BME280;50435;43.700;-79.318;2023-04-07T12:40:38;101829.42;;;2.79;46.07
64139;BME280;50435;43.700;-79.318;2023-04-07T12:43:06;101830.96;;;2.64;46.80
64139;BME280;50435;43.700;-79.318;2023-04-07T12:45:33;101835.85;;;1.78;42.62
64139;BME280;50435;43.700;-79.318;2023-04-07T12:48:00;101837.66;;;3.02;45.84
64139;BME280;50435;43.700;-79.318;2023-04-07T12:50:28;101843.63;;;2.23;46.24